Time;durP1;ratioP1;P1;durP2;ratioP2;P2;SDS_P1;SDS_P2;PMS_P1;PMS_P2;Temp;Humidity;BMP_temperature;BMP_pressure;BME280_temperature;BME280_humidity;BME280_pressure;Samples;Min_cycle;Max_cycle;Signal;HPM_P1;HPM_P2
2021/10/24 00:00:21;;;;;;;14.45;10.50;;;;;;;17.25;65.72;100225.34;5012102;28;20017;-76
2021/10/24 00:02:47;;;;;;;18.40;9.65;;;;;;;17.21;65.78;100224.09;5012199;28;20049;-76
2021/10/24 00:05:12;;;;;;;11.45;9.18;;;;;;;17.23;65.68;100218.56;4994608;28;20072;-76
2021/10/24 00:07:38;;;;;;;12.27;9.20;;;;;;;17.24;65.43;100237.03;5012290;28;20028;-76
2021/10/24 00:10:04;;;;;;;8.63;6.53;;;;;;;16.94;65.11;100204.53;5012137;28;20073;-76
2021/10/24 00:12:29;;;;;;;10.45;6.50;;;;;;;17.21;64.73;100253.44;5011997;28;20113;-76
2021/10/24 00:14:55;;;;;;;6.25;5.35;;;;;;;17.14;64.69;100239.28;5011939;28;20071;-76
2021/10/24 00:17:20;;;;;;;7.45;5.18;;;;;;;17.04;64.61;100242.31;5011888;28;20137;-76
2021/10/24 00:19:46;;;;;;;6.50;5.03;;;;;;;16.69;64.39;100203.47;5011904;28;20022;-76
2021/10/24 00:22:11;;;;;;;9.55;5.82;;;;;;;16.57;64.60;100187.22;5011830;28;20025;-76
2021/10/24 00:24:37;;;;;;;8.00;6.82;;;;;;;16.84;64.67;100236.13;5012029;28;20521;-76
2021/10/24 00:27:03;;;;;;;6.38;5.65;;;;;;;16.70;64.94;100231.78;5011769;28;20045;-75
2021/10/24 00:29:28;;;;;;;6.75;6.13;;;;;;;16.35;65.30;100188.34;5011594;28;20061;-76
2021/10/24 00:31:54;;;;;;;7.80;6.07;;;;;;;16.66;65.73;100242.03;5011660;28;20022;-76
2021/10/24 00:34:19;;;;;;;7.93;6.35;;;;;;;16.11;65.50;100179.03;5011719;28;20388;-75
2021/10/24 00:36:45;;;;;;;8.25;7.13;;;;;;;16.16;65.68;100198.72;5011562;28;20036;-75
2021/10/24 00:39:10;;;;;;;7.53;6.75;;;;;;;16.37;65.91;100244.97;5011637;28;20396;-75
2021/10/24 00:41:36;;;;;;;7.13;6.43;;;;;;;16.35;66.25;100253.16;5011670;28;20037;-75
2021/10/24 00:44:24;;;;;;;8.00;6.45;;;;;;;16.33;66.50;100254.34;5011645;28;20033;-75
2021/10/24 00:46:52;;;;;;;8.07;6.75;;;;;;;16.29;66.26;100256.59;5011529;28;20030;-76
2021/10/24 00:49:18;;;;;;;8.40;6.47;;;;;;;16.28;66.52;100262.94;5011271;28;20026;-75
2021/10/24 00:51:45;;;;;;;10.27;7.00;;;;;;;15.82;66.95;100193.44;4993781;28;20491;-76
2021/10/24 00:54:15;;;;;;;7.65;6.68;;;;;;;16.21;67.09;100267.41;4993966;28;20022;-76
2021/10/24 00:56:42;;;;;;;10.27;6.50;;;;;;;16.20;67.38;100271.91;5011413;28;20022;-75
2021/10/24 00:59:08;;;;;;;9.93;6.65;;;;;;;16.20;67.77;100282.56;5011422;28;20105;-76
2021/10/24 01:01:35;;;;;;;5.05;4.55;;;;;;;16.00;68.16;100243.50;5013489;28;20087;-76
2021/10/24 01:04:01;;;;;;;5.20;4.10;;;;;;;15.75;68.16;100197.88;5015282;28;20114;-76
2021/10/24 01:06:27;;;;;;;5.00;3.47;;;;;;;16.05;68.54;100259.72;4997629;28;20457;-76
2021/10/24 01:08:53;;;;;;;4.80;3.40;;;;;;;15.60;68.72;100199.81;5015450;28;20025;-75
2021/10/24 01:11:19;;;;;;;5.60;3.20;;;;;;;15.91;68.91;100261.50;5015415;28;20033;-75
2021/10/24 01:13:45;;;;;;;3.88;2.67;;;;;;;15.46;69.19;100182.91;5013994;28;20022;-75
2021/10/24 01:16:12;;;;;;;3.45;2.60;;;;;;;15.73;69.21;100235.38;5015194;28;20042;-75
2021/10/24 01:18:38;;;;;;;3.45;2.45;;;;;;;15.78;69.04;100254.25;5015188;28;20045;-75
2021/10/24 01:21:04;;;;;;;4.65;3.00;;;;;;;15.68;69.70;100251.09;5015238;28;20022;-75
2021/10/24 01:23:29;;;;;;;4.72;2.67;;;;;;;15.36;69.51;100203.69;4997741;28;20022;-75
2021/10/24 01:25:55;;;;;;;4.13;3.10;;;;;;;15.63;69.90;100263.34;5015165;28;20461;-75
2021/10/24 01:28:20;;;;;;;5.10;2.78;;;;;;;15.69;69.21;100279.38;5014917;28;20499;-75
2021/10/24 01:30:46;;;;;;;5.32;2.95;;;;;;;15.13;69.37;100218.03;5014855;28;20116;-74
2021/10/24 01:33:12;;;;;;;5.53;3.70;;;;;;;15.28;69.74;100233.94;5014889;28;20026;-75
2021/10/24 01:35:55;;;;;;;3.70;2.90;;;;;;;15.19;69.54;100235.91;5014778;28;20026;-75
2021/10/24 01:38:23;;;;;;;3.15;2.85;;;;;;;15.45;69.86;100293.03;5015015;28;20026;-74
2021/10/24 01:40:49;;;;;;;4.88;2.90;;;;;;;15.43;69.66;100297.72;5014941;28;20030;-75
2021/10/24 01:43:16;;;;;;;5.15;2.85;;;;;;;15.34;70.07;100302.34;5014896;28;20573;-75
2021/10/24 01:45:41;;;;;;;3.90;3.00;;;;;;;15.31;70.25;100310.69;5014781;28;20453;-75
2021/10/24 01:48:07;;;;;;;4.00;2.90;;;;;;;15.24;70.32;100307.97;5014625;28;20084;-75
2021/10/24 01:50:33;;;;;;;4.68;3.38;;;;;;;15.27;70.17;100302.28;5014496;28;20022;-76
2021/10/24 01:52:58;;;;;;;4.60;3.53;;;;;;;15.18;70.34;100295.44;5013352;28;20030;-76
2021/10/24 01:55:24;;;;;;;7.20;4.18;;;;;;;14.74;70.38;100237.06;5014789;28;20089;-76
2021/10/24 01:57:51;;;;;;;7.15;3.92;;;;;;;15.30;70.55;100313.56;5014654;28;20101;-76
2021/10/24 02:00:18;;;;;;;5.55;3.42;;;;;;;15.22;70.50;100304.69;5014560;28;20050;-75
2021/10/24 02:02:44;;;;;;;4.38;3.70;;;;;;;15.33;70.71;100321.97;5014498;28;20029;-75
2021/10/24 02:05:10;;;;;;;3.92;3.53;;;;;;;15.33;70.48;100323.81;4997129;28;20033;-75
2021/10/24 02:07:36;;;;;;;6.25;4.60;;;;;;;13.66;70.08;100064.34;5014472;28;20029;-76
2021/10/24 02:10:06;;;;;;;4.38;3.97;;;;;;;15.11;70.04;100317.66;5014215;28;20061;-76
2021/10/24 02:12:32;;;;;;;6.22;5.30;;;;;;;15.18;69.99;100334.50;5014126;28;20014;-76
2021/10/24 02:14:58;;;;;;;5.03;4.57;;;;;;;15.09;70.16;100360.41;5014002;28;20093;-76
2021/10/24 02:17:23;;;;;;;6.57;5.00;;;;;;;14.85;70.41;100318.16;4996307;28;20050;-76
2021/10/24 02:19:49;;;;;;;6.72;5.93;;;;;;;14.97;70.28;100348.59;4996369;28;20026;-76
2021/10/24 02:22:16;;;;;;;6.35;5.63;;;;;;;14.90;70.54;100337.88;5013886;28;20093;-76
2021/10/24 02:24:41;;;;;;;7.47;5.97;;;;;;;15.03;70.81;100363.00;5014096;28;20113;-76
2021/10/24 02:27:07;;;;;;;7.10;6.40;;;;;;;15.03;70.68;100357.66;5014131;28;20109;-77
2021/10/24 02:29:33;;;;;;;6.93;6.03;;;;;;;14.99;70.58;100357.22;5013682;28;20029;-75
2021/10/24 02:31:58;;;;;;;7.88;5.55;;;;;;;14.80;71.07;100337.34;5013849;28;20033;-75
2021/10/24 02:34:24;;;;;;;8.13;6.00;;;;;;;15.00;70.82;100366.84;5012555;28;20076;-76
2021/10/24 02:36:49;;;;;;;8.02;6.07;;;;;;;14.86;71.15;100349.91;5013771;28;20487;-75
2021/10/24 02:39:15;;;;;;;8.15;5.75;;;;;;;14.42;70.99;100287.94;5013617;28;20499;-75
2021/10/24 02:41:40;;;;;;;6.47;5.03;;;;;;;14.99;70.95;100378.50;5013508;28;20399;-76
2021/10/24 02:44:06;;;;;;;6.82;5.55;;;;;;;14.60;71.16;100321.13;5013508;28;20026;-76
2021/10/24 02:46:31;;;;;;;6.80;5.43;;;;;;;14.48;71.07;100330.59;5012294;28;20022;-77
2021/10/24 02:48:56;;;;;;;7.20;6.50;;;;;;;14.75;71.20;100374.28;5013326;28;20422;-76
2021/10/24 02:51:22;;;;;;;11.30;8.05;;;;;;;14.40;71.17;100309.41;5013458;28;20025;-76
2021/10/24 02:53:47;;;;;;;12.18;10.45;;;;;;;14.89;71.18;100386.75;5013697;28;20091;-76
2021/10/24 02:56:13;;;;;;;14.13;10.23;;;;;;;14.38;71.10;100310.59;5013589;28;20031;-77
2021/10/24 02:58:38;;;;;;;12.75;10.65;;;;;;;14.72;71.22;100381.81;5013349;28;20033;-76
2021/10/24 03:01:04;;;;;;;17.48;12.90;;;;;;;14.93;71.24;100408.50;5013347;28;20026;-76
2021/10/24 03:03:29;;;;;;;19.73;15.93;;;;;;;14.79;71.22;100410.13;5013230;28;20466;-76
2021/10/24 03:05:54;;;;;;;20.00;16.85;;;;;;;14.58;71.99;100396.75;5013053;28;20040;-76
2021/10/24 03:08:20;;;;;;;26.77;21.60;;;;;;;14.60;71.55;100400.03;5013274;28;20026;-76
2021/10/24 03:10:45;;;;;;;23.75;19.80;;;;;;;14.29;71.98;100353.19;5013008;28;20446;-75
2021/10/24 03:13:11;;;;;;;36.03;23.15;;;;;;;14.45;71.73;100388.59;5013023;28;20046;-75
2021/10/24 03:15:36;;;;;;;42.72;24.20;;;;;;;14.67;71.43;100429.38;5013107;28;20026;-76
2021/10/24 03:18:02;;;;;;;37.65;23.85;;;;;;;14.69;71.40;100433.50;5012714;28;20411;-77
2021/10/24 03:20:28;;;;;;;58.08;35.47;;;;;;;14.60;71.09;100421.31;5012690;28;20521;-76
2021/10/24 03:22:53;;;;;;;51.72;33.53;;;;;;;14.37;71.12;100391.28;4995143;28;20034;-76
2021/10/24 03:25:19;;;;;;;53.40;33.80;;;;;;;14.11;71.05;100365.94;5012123;28;20032;-76
2021/10/24 03:27:44;;;;;;;39.70;28.25;;;;;;;13.95;71.27;100372.25;5012642;28;20030;-76
2021/10/24 03:30:10;;;;;;;34.78;23.73;;;;;;;14.47;71.55;100435.22;4994919;28;20037;-76
2021/10/24 03:32:35;;;;;;;23.60;15.95;;;;;;;14.26;71.64;100413.81;5012671;28;20415;-76
2021/10/24 03:35:00;;;;;;;12.07;8.73;;;;;;;14.44;71.38;100448.03;5012496;28;20034;-76
2021/10/24 03:37:26;;;;;;;9.32;6.80;;;;;;;14.43;71.22;100443.72;4994988;28;20411;-76
2021/10/24 03:39:52;;;;;;;3.80;3.35;;;;;;;14.09;71.19;100405.13;5012737;28;20022;-76
2021/10/24 03:42:17;;;;;;;3.78;3.03;;;;;;;13.77;71.34;100361.13;5012690;28;20101;-76
2021/10/24 03:44:43;;;;;;;3.05;2.75;;;;;;;14.27;71.51;100447.34;5012845;28;20073;-76
2021/10/24 03:47:08;;;;;;;6.22;2.30;;;;;;;14.12;71.54;100425.19;5012596;28;20514;-76
2021/10/24 03:49:34;;;;;;;2.10;1.90;;;;;;;14.29;71.22;100440.00;5012362;28;20489;-76
2021/10/24 03:51:59;;;;;;;2.95;2.33;;;;;;;14.12;71.05;100417.22;5012573;28;20029;-76
2021/10/24 03:54:25;;;;;;;1.95;1.83;;;;;;;14.08;71.27;100431.88;5012232;28;20549;-76
2021/10/24 03:56:50;;;;;;;2.05;1.60;;;;;;;14.15;71.43;100446.94;5012312;28;20052;-75
2021/10/24 03:59:15;;;;;;;2.53;1.73;;;;;;;14.02;71.75;100444.03;5012292;28;20029;-75
2021/10/24 04:01:41;;;;;;;1.77;1.67;;;;;;;14.05;71.76;100440.19;5012151;28;20034;-75
2021/10/24 04:04:06;;;;;;;2.10;1.50;;;;;;;13.72;71.76;100392.69;5012031;28;20025;-75
2021/10/24 04:06:33;;;;;;;1.83;1.50;;;;;;;14.05;71.81;100442.84;5012161;28;20036;-75
2021/10/24 04:08:58;;;;;;;1.70;1.60;;;;;;;14.16;71.85;100461.06;5012228;28;20030;-76
2021/10/24 04:11:24;;;;;;;1.70;1.60;;;;;;;14.11;71.72;100463.38;5012080;28;20037;-75
2021/10/24 04:13:49;;;;;;;1.77;1.60;;;;;;;14.12;71.88;100462.38;5011933;28;20168;-75
2021/10/24 04:16:15;;;;;;;2.30;1.65;;;;;;;14.13;71.98;100464.06;5011804;28;20104;-76
2021/10/24 04:18:40;;;;;;;1.63;1.52;;;;;;;13.82;71.87;100419.81;5011940;28;20091;-76
2021/10/24 04:21:05;;;;;;;2.40;1.75;;;;;;;13.75;71.88;100404.75;5011968;28;20030;-76
2021/10/24 04:23:31;;;;;;;1.80;1.65;;;;;;;13.69;71.75;100403.66;5012023;28;20040;-75
2021/10/24 04:25:56;;;;;;;1.58;1.48;;;;;;;14.15;71.46;100483.31;5010554;28;20065;-76
2021/10/24 04:28:22;;;;;;;2.00;1.35;;;;;;;13.64;71.44;100427.22;5011860;28;20113;-75
2021/10/24 04:30:47;;;;;;;2.97;1.60;;;;;;;14.02;71.22;100496.31;5011862;28;20034;-76
2021/10/24 04:33:14;;;;;;;2.22;1.73;;;;;;;13.81;70.70;100457.97;5011721;28;20034;-75
2021/10/24 04:35:40;;;;;;;2.08;1.85;;;;;;;14.05;70.79;100498.63;5010942;28;20036;-76
2021/10/24 04:38:05;;;;;;;3.10;2.30;;;;;;;14.00;70.80;100496.50;5011667;28;20029;-76
2021/10/24 04:40:31;;;;;;;1.92;1.83;;;;;;;13.90;71.21;100482.63;5011437;28;20026;-75
2021/10/24 04:42:56;;;;;;;2.67;2.40;;;;;;;13.50;71.48;100409.41;4994031;28;20033;-76
2021/10/24 04:45:22;;;;;;;2.45;2.00;;;;;;;13.67;71.24;100434.84;5011644;28;20022;-75
2021/10/24 04:47:47;;;;;;;2.40;1.85;;;;;;;13.92;71.04;100492.06;5011551;28;20054;-75
2021/10/24 04:50:13;;;;;;;2.22;1.70;;;;;;;13.89;71.01;100481.81;5011466;28;20029;-76
2021/10/24 04:52:38;;;;;;;2.58;2.38;;;;;;;13.91;70.61;100484.28;5011584;28;20068;-75
2021/10/24 04:55:05;;;;;;;2.40;2.20;;;;;;;13.55;70.23;100434.41;5011432;28;20494;-75
2021/10/24 04:57:31;;;;;;;2.22;2.03;;;;;;;13.61;70.34;100441.69;5011538;28;20022;-76
2021/10/24 04:59:57;;;;;;;2.83;2.47;;;;;;;13.49;70.38;100426.34;5011227;28;20383;-75
2021/10/24 05:02:22;;;;;;;2.40;2.20;;;;;;;13.64;70.22;100445.81;5011269;28;20037;-76
2021/10/24 05:04:48;;;;;;;2.50;2.22;;;;;;;13.84;70.15;100480.69;5011362;28;20032;-75
2021/10/24 05:07:13;;;;;;;3.40;2.72;;;;;;;13.98;69.89;100506.47;5011193;28;20037;-76
2021/10/24 05:09:39;;;;;;;4.57;3.22;;;;;;;13.95;69.55;100505.00;5009911;28;20036;-76
2021/10/24 05:12:05;;;;;;;5.15;3.00;;;;;;;13.91;69.64;100519.63;5011194;28;20414;-75
2021/10/24 05:14:30;;;;;;;6.13;3.85;;;;;;;13.88;69.79;100524.44;5009851;28;20495;-75
2021/10/24 05:16:55;;;;;;;3.38;2.60;;;;;;;13.91;70.07;100545.34;4993422;28;20053;-75
2021/10/24 05:19:21;;;;;;;3.05;2.22;;;;;;;13.38;69.82;100464.69;5011494;28;20041;-75
2021/10/24 05:21:47;;;;;;;3.05;2.50;;;;;;;13.52;69.91;100502.94;5011361;28;20034;-75
2021/10/24 05:24:13;;;;;;;2.70;2.13;;;;;;;13.63;69.93;100518.47;5011282;28;20032;-75
2021/10/24 05:26:38;;;;;;;3.22;2.10;;;;;;;13.50;69.67;100502.28;5011417;28;20034;-75
2021/10/24 05:29:04;;;;;;;3.28;2.25;;;;;;;13.87;69.40;100563.44;5011169;28;20487;-74
2021/10/24 05:31:29;;;;;;;3.33;2.50;;;;;;;13.49;69.30;100500.63;5011182;28;20025;-74
2021/10/24 05:33:55;;;;;;;3.90;2.85;;;;;;;13.43;69.41;100499.50;5011388;28;20067;-75
2021/10/24 05:36:20;;;;;;;3.25;2.40;;;;;;;13.89;69.72;100560.63;5011309;28;20133;-75
2021/10/24 05:38:46;;;;;;;3.28;2.70;;;;;;;13.66;69.32;100534.03;5011286;28;20026;-75
2021/10/24 05:41:12;;;;;;;2.72;2.38;;;;;;;13.50;69.28;100512.88;5010944;28;20561;-75
2021/10/24 05:43:37;;;;;;;3.75;2.90;;;;;;;13.57;69.78;100537.72;5011294;28;20048;-75
2021/10/24 05:46:03;;;;;;;4.05;3.13;;;;;;;13.94;68.90;100606.06;5009802;28;20105;-75
2021/10/24 05:48:28;;;;;;;4.50;3.05;;;;;;;13.49;69.39;100543.91;5014632;28;20080;-75
2021/10/24 05:50:54;;;;;;;3.47;3.17;;;;;;;13.60;69.47;100566.56;5014370;28;20059;-75
2021/10/24 05:53:20;;;;;;;3.35;3.10;;;;;;;13.68;69.18;100585.09;4997150;28;20084;-76
2021/10/24 05:55:47;;;;;;;3.70;3.13;;;;;;;13.53;69.25;100579.69;5014649;28;20506;-74
2021/10/24 05:58:13;;;;;;;3.97;2.97;;;;;;;13.44;68.99;100556.84;5014637;28;20060;-75
2021/10/24 06:00:38;;;;;;;3.97;3.25;;;;;;;13.55;68.99;100582.19;5014298;28;20057;-76
2021/10/24 06:03:05;;;;;;;3.78;3.25;;;;;;;13.95;68.91;100650.19;5014246;28;20034;-75
2021/10/24 06:05:32;;;;;;;4.35;3.40;;;;;;;13.84;69.00;100632.81;5014258;28;20075;-75
2021/10/24 06:07:58;;;;;;;3.90;3.17;;;;;;;13.84;68.91;100622.19;5014231;28;20025;-76
2021/10/24 06:10:29;;;;;;;4.45;3.30;;;;;;;14.02;68.66;100655.63;5014294;28;20030;-75
2021/10/24 06:12:55;;;;;;;3.95;3.58;;;;;;;13.98;68.68;100671.91;5014230;28;20092;-75
2021/10/24 06:15:22;;;;;;;3.92;3.53;;;;;;;14.01;68.59;100662.78;5014100;28;20461;-75
2021/10/24 06:17:49;;;;;;;6.40;3.97;;;;;;;13.92;68.32;100654.00;5013944;28;20050;-73
2021/10/24 06:20:16;;;;;;;3.33;2.78;;;;;;;14.02;68.26;100664.44;5014015;28;20083;-75
2021/10/24 06:22:42;;;;;;;3.97;2.80;;;;;;;14.04;67.87;100685.50;5013850;28;20510;-76
2021/10/24 06:25:10;;;;;;;4.05;3.30;;;;;;;13.49;67.55;100612.06;5014238;28;20152;-76
2021/10/24 06:27:37;;;;;;;3.53;3.15;;;;;;;13.98;67.37;100682.53;5014151;28;20539;-76
2021/10/24 06:30:08;;;;;;;4.20;3.63;;;;;;;13.99;67.35;100693.97;4996400;28;20109;-76
2021/10/24 06:32:34;;;;;;;4.07;3.58;;;;;;;14.02;67.08;100698.13;4996505;28;20034;-76
2021/10/24 06:35:01;;;;;;;3.60;3.30;;;;;;;13.62;67.18;100644.19;5013977;28;20108;-75
2021/10/24 06:37:46;;;;;;;3.90;3.45;;;;;;;13.68;67.02;100657.59;5013969;28;20513;-76
2021/10/24 06:40:13;;;;;;;3.92;3.05;;;;;;;14.02;66.55;100720.19;5013819;28;20524;-76
2021/10/24 06:42:39;;;;;;;4.00;3.13;;;;;;;13.74;66.32;100674.66;5013694;28;20029;-76
2021/10/24 06:45:06;;;;;;;4.88;3.60;;;;;;;14.06;66.56;100721.50;5013756;28;20022;-76
2021/10/24 06:47:32;;;;;;;4.43;3.85;;;;;;;13.59;66.92;100645.34;5013673;28;20108;-76
2021/10/24 06:49:58;;;;;;;4.32;3.58;;;;;;;13.95;66.73;100704.13;5013150;28;20109;-76
2021/10/24 06:52:23;;;;;;;3.47;3.17;;;;;;;14.14;66.61;100736.63;5013294;28;20030;-76
2021/10/24 06:54:48;;;;;;;7.68;3.20;;;;;;;14.17;65.88;100733.59;5013352;28;20026;-75
2021/10/24 06:57:14;;;;;;;3.65;3.35;;;;;;;14.08;65.81;100729.31;5013401;28;20037;-76
2021/10/24 06:59:42;;;;;;;3.97;3.50;;;;;;;13.87;65.74;100701.50;5011245;28;20152;-76
2021/10/24 07:02:08;;;;;;;4.80;3.53;;;;;;;13.72;65.39;100675.84;5013417;28;20176;-76
2021/10/24 07:04:34;;;;;;;4.45;3.30;;;;;;;14.05;64.86;100737.59;5013292;28;20037;-76
2021/10/24 07:06:59;;;;;;;3.78;3.17;;;;;;;13.90;64.77;100721.56;5013350;28;20419;-76
2021/10/24 07:09:25;;;;;;;5.72;3.58;;;;;;;14.00;64.30;100744.25;5013153;28;20034;-76
2021/10/24 07:11:50;;;;;;;3.55;3.25;;;;;;;13.95;64.23;100751.91;5013341;28;20100;-76
2021/10/24 07:14:16;;;;;;;3.63;2.97;;;;;;;13.53;64.49;100677.88;5013007;28;20026;-76
2021/10/24 07:16:41;;;;;;;4.07;3.63;;;;;;;13.93;64.30;100737.97;5012975;28;20049;-76
2021/10/24 07:19:06;;;;;;;4.38;3.58;;;;;;;14.03;64.43;100752.88;5013429;28;20030;-76
2021/10/24 07:21:32;;;;;;;4.68;3.90;;;;;;;14.01;64.62;100750.41;5013178;28;20044;-76
2021/10/24 07:23:57;;;;;;;4.57;3.55;;;;;;;14.06;64.48;100747.22;4995447;28;20457;-76
2021/10/24 07:26:23;;;;;;;5.88;3.80;;;;;;;14.12;64.39;100750.06;5012945;28;20399;-76
2021/10/24 07:28:48;;;;;;;6.10;3.83;;;;;;;13.56;64.50;100661.63;5012735;28;20021;-76
2021/10/24 07:31:14;;;;;;;5.63;3.75;;;;;;;13.60;64.18;100675.38;5012845;28;20025;-76
2021/10/24 07:33:39;;;;;;;4.53;3.38;;;;;;;14.09;64.33;100761.00;5012780;28;20030;-75
2021/10/24 07:36:04;;;;;;;4.47;3.13;;;;;;;14.05;63.88;100748.22;5012787;28;20490;-76
2021/10/24 07:38:30;;;;;;;3.70;3.20;;;;;;;14.11;63.83;100753.69;5012755;28;20021;-75
2021/10/24 07:40:55;;;;;;;3.47;3.17;;;;;;;13.75;63.95;100699.38;5012591;28;20026;-76
2021/10/24 07:43:22;;;;;;;4.47;3.72;;;;;;;14.21;64.19;100764.13;5012539;28;20426;-76
2021/10/24 07:45:48;;;;;;;4.72;3.40;;;;;;;14.18;64.30;100756.53;5012336;28;20095;-76
2021/10/24 07:48:14;;;;;;;4.47;3.58;;;;;;;13.88;64.42;100705.81;5012365;28;20033;-77
2021/10/24 07:50:40;;;;;;;6.20;4.60;;;;;;;14.27;64.29;100769.59;5012426;28;20101;-75
2021/10/24 07:53:05;;;;;;;6.22;4.82;;;;;;;14.27;64.61;100777.56;5012437;28;20111;-75
2021/10/24 07:55:32;;;;;;;6.88;5.63;;;;;;;14.28;64.28;100773.91;5012277;28;20036;-75
2021/10/24 07:57:57;;;;;;;9.98;8.10;;;;;;;14.30;64.22;100784.38;5012221;28;20029;-75
2021/10/24 08:00:23;;;;;;;15.30;11.32;;;;;;;14.31;64.55;100804.63;5012215;28;20021;-76
2021/10/24 08:02:48;;;;;;;14.35;9.15;;;;;;;14.31;64.76;100794.81;4994457;28;20546;-75
2021/10/24 08:05:14;;;;;;;10.30;6.35;;;;;;;14.33;65.26;100797.31;5012006;28;20025;-75
2021/10/24 08:07:41;;;;;;;6.10;5.05;;;;;;;14.35;65.29;100795.31;4994383;28;20057;-76
2021/10/24 08:10:11;;;;;;;8.80;4.47;;;;;;;13.78;65.78;100707.00;4994144;28;20030;-75
2021/10/24 08:12:40;;;;;;;8.15;4.50;;;;;;;14.26;65.89;100789.19;5012026;28;20172;-73
2021/10/24 08:15:07;;;;;;;11.48;4.97;;;;;;;14.37;65.96;100801.28;5012027;28;20032;-75
2021/10/24 08:17:33;;;;;;;8.57;5.60;;;;;;;14.41;66.14;100799.94;5011872;28;20050;-75
2021/10/24 08:19:58;;;;;;;10.00;5.65;;;;;;;14.43;65.90;100807.75;5012003;28;20083;-75
2021/10/24 08:22:25;;;;;;;7.05;5.05;;;;;;;14.35;65.96;100797.13;5011904;28;20037;-75
2021/10/24 08:24:51;;;;;;;6.10;3.53;;;;;;;14.43;65.83;100810.41;5011960;28;20022;-76
2021/10/24 08:27:16;;;;;;;6.80;3.85;;;;;;;14.35;65.98;100810.41;5011910;28;20034;-75
2021/10/24 08:29:42;;;;;;;9.50;4.55;;;;;;;14.28;66.05;100800.47;5011740;28;20026;-76
2021/10/24 08:32:10;;;;;;;5.90;3.45;;;;;;;14.43;66.23;100827.19;5011990;28;20075;-75
2021/10/24 08:34:42;;;;;;;8.25;3.78;;;;;;;14.45;65.59;100822.53;5011937;28;20101;-75
2021/10/24 08:37:08;;;;;;;;;;;;;;;14.34;66.00;100827.34;5012170;28;20529;-75
2021/10/24 08:39:35;;;;;;;6.45;3.95;;;;;;;14.46;65.71;100826.84;5011695;28;19916;-75
2021/10/24 08:42:02;;;;;;;7.60;4.10;;;;;;;14.43;65.53;100821.03;5011730;28;20026;-75
2021/10/24 08:44:32;;;;;;;6.45;4.55;;;;;;;14.59;65.26;100835.09;5011703;28;20026;-75
2021/10/24 08:46:58;;;;;;;5.00;4.22;;;;;;;14.64;64.94;100837.25;5011652;28;20064;-75
2021/10/24 08:49:24;;;;;;;6.32;4.18;;;;;;;14.39;64.64;100791.31;5011484;28;20065;-75
2021/10/24 08:51:50;;;;;;;5.65;4.78;;;;;;;14.68;64.59;100835.06;5011809;28;20022;-75
2021/10/24 08:54:23;;;;;;;8.57;4.82;;;;;;;14.36;64.26;100796.97;5011598;28;20037;-75
2021/10/24 08:56:49;;;;;;;7.32;4.65;;;;;;;14.70;64.10;100841.03;5011503;28;20073;-75
2021/10/24 08:59:14;;;;;;;7.68;4.72;;;;;;;14.74;64.46;100850.31;4993932;28;20514;-75
2021/10/24 09:01:51;;;;;;;8.75;4.90;;;;;;;14.68;63.80;100835.06;5011483;28;20404;-76
2021/10/24 09:04:16;;;;;;;10.75;5.40;;;;;;;14.71;63.48;100854.16;5011356;28;20026;-75
2021/10/24 09:06:55;;;;;;;9.95;5.25;;;;;;;14.68;63.17;100856.31;5011531;28;20084;-75
2021/10/24 09:09:25;;;;;;;6.78;2.90;;;;;;;14.70;62.80;100854.31;5011342;28;20030;-75
2021/10/24 09:12:03;;;;;;;3.53;2.05;;;;;;;14.63;62.14;100840.91;5011331;28;20032;-75
2021/10/24 09:14:38;;;;;;;3.88;2.00;;;;;;;14.71;61.50;100854.16;4993716;28;20030;-76
2021/10/24 09:17:21;;;;;;;4.13;2.53;;;;;;;14.66;61.36;100842.38;5011326;28;20053;-75
2021/10/24 09:19:51;;;;;;;3.10;2.17;;;;;;;14.72;60.51;100853.16;5011426;28;20026;-75
2021/10/24 09:22:17;;;;;;;2.85;2.33;;;;;;;14.76;60.13;100851.81;5013136;28;20037;-75
2021/10/24 09:25:01;;;;;;;5.47;2.88;;;;;;;14.82;59.73;100845.78;5013859;28;20034;-75
2021/10/24 09:27:27;;;;;;;4.35;3.22;;;;;;;14.95;60.11;100845.25;5014966;28;20022;-75
2021/10/24 09:29:53;;;;;;;7.28;4.10;;;;;;;15.05;59.24;100848.53;5015235;28;20487;-75
2021/10/24 09:32:18;;;;;;;5.55;3.88;;;;;;;15.16;58.09;100848.13;5015095;28;20032;-75
2021/10/24 09:35:00;;;;;;;5.63;3.97;;;;;;;14.91;57.58;100814.69;4997339;28;20045;-75
2021/10/24 09:37:27;;;;;;;5.40;3.65;;;;;;;15.28;57.51;100848.53;5014648;28;20450;-75
2021/10/24 09:39:53;;;;;;;7.28;4.15;;;;;;;15.34;57.03;100842.50;5014815;28;20029;-75
2021/10/24 09:42:22;;;;;;;8.13;5.03;;;;;;;15.42;57.07;100847.78;5014776;28;20029;-75
2021/10/24 09:45:11;;;;;;;7.28;4.43;;;;;;;15.46;56.16;100833.09;5014734;28;20025;-75
2021/10/24 09:47:44;;;;;;;8.88;5.53;;;;;;;15.14;56.26;100772.97;5014695;28;20042;-75
2021/10/24 09:50:32;;;;;;;7.70;4.05;;;;;;;15.12;52.29;100764.34;5014664;28;20026;-75
2021/10/24 09:53:16;;;;;;;7.32;4.57;;;;;;;15.57;51.81;100818.53;4996754;28;20108;-76
2021/10/24 09:56:03;;;;;;;4.70;3.60;;;;;;;15.31;53.56;100775.53;5011954;28;20052;-75
2021/10/24 09:58:36;;;;;;;5.43;3.65;;;;;;;15.31;52.51;100772.84;5013974;28;20045;-75
2021/10/24 10:01:04;;;;;;;6.63;4.30;;;;;;;15.65;51.88;100823.88;4996741;28;20022;-76
2021/10/24 10:03:29;;;;;;;3.88;3.38;;;;;;;15.09;51.13;100740.78;5014453;28;20621;-75
2021/10/24 10:05:56;;;;;;;5.50;4.15;;;;;;;15.19;50.90;100759.97;5014409;28;20096;-76
2021/10/24 10:08:22;;;;;;;8.85;6.18;;;;;;;15.60;51.31;100823.53;5014344;28;20388;-76
2021/10/24 10:11:22;;;;;;;8.30;5.88;;;;;;;15.74;51.41;100830.78;5014116;28;20029;-75
2021/10/24 10:13:56;;;;;;;6.78;4.63;;;;;;;15.92;50.96;100826.94;4992860;28;20525;-75
2021/10/24 10:16:34;;;;;;;6.78;4.57;;;;;;;16.01;50.36;100821.34;5014069;28;20084;-75
2021/10/24 10:19:04;;;;;;;6.03;3.90;;;;;;;16.00;50.13;100824.19;4996532;28;20032;-76
2021/10/24 10:21:34;;;;;;;5.85;4.28;;;;;;;15.99;49.88;100835.88;5014116;28;20014;-75
2021/10/24 10:24:02;;;;;;;4.45;3.47;;;;;;;15.75;49.79;100789.81;5014149;28;20419;-75
2021/10/24 10:26:41;;;;;;;4.63;2.90;;;;;;;15.92;48.99;100832.28;5014113;28;20029;-75
2021/10/24 10:29:28;;;;;;;4.47;3.03;;;;;;;15.93;49.46;100829.44;5014164;28;20552;-75
2021/10/24 10:32:17;;;;;;;5.28;3.33;;;;;;;15.50;47.91;100759.06;5012450;28;20030;-75
2021/10/24 10:34:58;;;;;;;5.95;3.88;;;;;;;15.93;49.08;100826.75;5012661;28;20048;-75
2021/10/24 10:37:53;;;;;;;5.70;4.60;;;;;;;15.94;49.03;100820.44;5013932;28;20093;-74
2021/10/24 10:40:22;;;;;;;7.13;4.75;;;;;;;15.96;49.07;100825.56;5013912;28;20540;-75
2021/10/24 10:42:51;;;;;;;5.45;3.88;;;;;;;15.79;49.09;100780.47;5013721;28;20465;-75
2021/10/24 10:45:16;;;;;;;5.47;4.10;;;;;;;16.12;49.10;100826.22;5013927;28;20105;-75
2021/10/24 10:48:00;;;;;;;6.93;4.45;;;;;;;16.27;48.05;100823.56;5013886;28;20041;-75
2021/10/24 10:50:31;;;;;;;6.25;4.47;;;;;;;16.40;47.81;100828.28;5013259;28;20112;-75
2021/10/24 10:53:07;;;;;;;6.45;4.93;;;;;;;16.30;45.71;100801.88;5013578;28;20167;-74
2021/10/24 10:55:55;;;;;;;4.70;3.20;;;;;;;16.52;46.14;100829.47;5013432;28;20041;-75
2021/10/24 10:58:34;;;;;;;6.85;3.22;;;;;;;16.44;44.90;100829.56;5012168;28;20083;-75
2021/10/24 11:01:01;;;;;;;6.22;3.53;;;;;;;16.37;45.57;100826.81;4995715;28;20446;-76
2021/10/24 11:04:00;;;;;;;5.20;3.40;;;;;;;16.38;45.84;100831.13;5013251;28;20037;-75
2021/10/24 11:06:26;;;;;;;7.20;4.25;;;;;;;16.44;46.13;100835.72;4970219;28;20038;-75
2021/10/24 11:08:58;;;;;;;4.88;3.33;;;;;;;16.45;44.52;100829.38;5013144;28;20026;-75
2021/10/24 11:11:36;;;;;;;5.72;3.92;;;;;;;16.48;45.24;100836.19;5013202;28;20573;-75
2021/10/24 11:14:22;;;;;;;4.53;3.42;;;;;;;16.16;45.64;100781.41;5013104;28;20034;-75
2021/10/24 11:16:51;;;;;;;4.00;3.15;;;;;;;16.56;45.47;100844.09;5013020;28;20487;-75
2021/10/24 11:19:28;;;;;;;5.38;3.60;;;;;;;16.58;45.09;100833.25;5013139;28;20026;-74
2021/10/24 11:22:01;;;;;;;6.30;3.65;;;;;;;16.67;44.58;100840.16;5013074;28;20066;-74
2021/10/24 11:24:48;;;;;;;4.35;3.47;;;;;;;16.66;44.02;100838.50;4995274;28;20014;-75
2021/10/24 11:27:22;;;;;;;6.05;3.28;;;;;;;16.33;44.82;100764.19;5012905;28;20032;-75